createdAt,value
2022-11-22T00:00:25.587Z,85.93
2022-11-22T00:02:52.409Z,86.45
2022-11-22T00:05:19.282Z,85.55
2022-11-22T00:07:46.318Z,80.35
2022-11-22T00:10:14.555Z,84.45
2022-11-22T00:12:41.885Z,80.90
2022-11-22T00:15:09.566Z,85.72
2022-11-22T00:17:36.381Z,93.38
2022-11-22T00:20:04.890Z,80.60
2022-11-22T00:22:32.830Z,88.75
2022-11-22T00:25:00.089Z,136.27
2022-11-22T00:27:27.310Z,80.85
2022-11-22T00:29:54.101Z,93.55
2022-11-22T00:32:20.951Z,99.32
2022-11-22T00:34:47.716Z,101.03
2022-11-22T00:37:14.491Z,96.28
2022-11-22T00:39:41.260Z,97.80
2022-11-22T00:42:08.262Z,97.00
2022-11-22T00:44:35.027Z,89.13
2022-11-22T00:47:01.761Z,85.97
2022-11-22T00:49:28.849Z,91.50
2022-11-22T00:51:55.913Z,89.75
2022-11-22T00:54:22.826Z,88.28
2022-11-22T00:56:49.568Z,86.38
2022-11-22T00:59:16.406Z,84.18
2022-11-22T01:01:43.232Z,83.57
2022-11-22T01:04:10.078Z,85.85
2022-11-22T01:06:36.941Z,85.45
2022-11-22T01:09:04.079Z,90.95
2022-11-22T01:11:30.849Z,88.90
2022-11-22T01:13:57.625Z,82.88
2022-11-22T01:16:24.382Z,80.95
2022-11-22T01:18:51.106Z,88.38
2022-11-22T01:21:17.853Z,82.50
2022-11-22T01:23:44.618Z,82.35
2022-11-22T01:26:12.536Z,92.05
2022-11-22T01:28:39.322Z,85.60
2022-11-22T01:31:06.350Z,83.28
2022-11-22T01:33:33.113Z,77.65
2022-11-22T01:35:59.861Z,76.03
2022-11-22T01:38:26.850Z,77.50
2022-11-22T01:40:53.938Z,81.13
2022-11-22T01:43:26.142Z,81.57
2022-11-22T01:45:57.776Z,81.22
2022-11-22T01:48:30.813Z,73.03
2022-11-22T01:51:06.770Z,80.28
2022-11-22T01:53:36.908Z,84.18
2022-11-22T01:56:06.588Z,84.80
2022-11-22T01:58:36.932Z,82.63
2022-11-22T02:01:03.943Z,78.68
2022-11-22T02:03:33.608Z,81.82
2022-11-22T02:06:00.980Z,78.28
2022-11-22T02:09:03.220Z,76.25
2022-11-22T02:14:02.183Z,74.60
2022-11-22T02:16:29.459Z,82.63
2022-11-22T02:18:56.233Z,70.57
2022-11-22T02:21:23.148Z,69.80
2022-11-22T02:23:57.982Z,73.50
2022-11-22T02:26:28.347Z,66.07
2022-11-22T02:28:58.199Z,71.18
2022-11-22T02:31:43.554Z,68.85
2022-11-22T02:34:11.921Z,64.57
2022-11-22T02:36:48.950Z,60.20
2022-11-22T02:39:20.274Z,64.22
2022-11-22T02:41:48.773Z,67.25
2022-11-22T02:44:17.244Z,63.42
2022-11-22T02:46:53.103Z,65.78
2022-11-22T02:49:22.310Z,64.63
2022-11-22T02:51:49.800Z,63.03
2022-11-22T02:54:16.799Z,64.78
2022-11-22T02:56:43.819Z,63.75
2022-11-22T02:59:10.932Z,62.17
2022-11-22T03:01:38.002Z,71.00
2022-11-22T03:04:05.085Z,65.82
2022-11-22T03:06:32.037Z,70.03
2022-11-22T03:08:58.807Z,64.00
2022-11-22T03:11:25.773Z,227.32
2022-11-22T03:13:52.602Z,66.00
2022-11-22T03:16:19.370Z,64.82
2022-11-22T03:18:46.255Z,67.15
2022-11-22T03:21:12.983Z,67.65
2022-11-22T03:23:40.046Z,79.43
2022-11-22T03:26:09.144Z,110.28
2022-11-22T03:28:35.961Z,73.32
2022-11-22T03:31:06.394Z,81.68
2022-11-22T03:33:33.999Z,78.35
2022-11-22T03:36:01.242Z,85.65
2022-11-22T03:38:28.002Z,81.93
2022-11-22T03:40:54.816Z,93.07
2022-11-22T03:43:21.846Z,75.38
2022-11-22T03:45:48.713Z,82.05
2022-11-22T03:48:15.488Z,81.65
2022-11-22T03:50:42.356Z,86.25
2022-11-22T03:53:09.623Z,84.72
2022-11-22T03:55:36.515Z,81.60
2022-11-22T03:58:03.326Z,100.60
2022-11-22T04:00:30.481Z,90.55
2022-11-22T04:02:57.242Z,86.10
2022-11-22T04:05:24.030Z,92.93
2022-11-22T04:07:56.059Z,83.10
2022-11-22T04:10:23.956Z,123.00
2022-11-22T04:12:51.141Z,86.97
2022-11-22T04:15:17.973Z,83.70
2022-11-22T04:17:45.803Z,89.20
2022-11-22T04:20:43.010Z,83.72
2022-11-22T04:23:18.230Z,81.90
2022-11-22T04:25:50.573Z,77.95
2022-11-22T04:28:20.221Z,77.25
2022-11-22T04:31:06.020Z,87.55
2022-11-22T04:33:34.446Z,83.15
2022-11-22T04:36:01.212Z,88.90
2022-11-22T04:38:28.173Z,79.00
2022-11-22T04:40:54.999Z,105.97
2022-11-22T04:43:45.910Z,107.35
2022-11-22T04:46:13.827Z,109.57
2022-11-22T04:48:40.823Z,93.65
2022-11-22T04:51:26.598Z,114.57
2022-11-22T04:53:53.337Z,87.75
2022-11-22T04:56:20.142Z,95.70
2022-11-22T04:58:46.920Z,92.43
2022-11-22T05:01:13.784Z,92.05
2022-11-22T05:03:40.585Z,86.38
2022-11-22T05:06:07.348Z,90.65
2022-11-22T05:08:34.877Z,91.05
2022-11-22T05:11:01.637Z,91.55
2022-11-22T05:13:31.600Z,100.93
2022-11-22T05:15:59.814Z,96.22
2022-11-22T05:18:27.326Z,98.40
2022-11-22T05:20:54.610Z,97.78
2022-11-22T05:23:41.168Z,93.15
2022-11-22T05:26:09.625Z,95.32
2022-11-22T05:28:37.731Z,95.75
2022-11-22T05:31:12.886Z,92.45
2022-11-22T05:33:41.458Z,97.15
2022-11-22T05:36:09.220Z,94.90
2022-11-22T05:38:37.878Z,89.22
2022-11-22T05:41:10.302Z,95.80
2022-11-22T05:43:37.756Z,86.10
2022-11-22T05:46:09.590Z,94.78
2022-11-22T05:51:08.660Z,91.97
2022-11-22T05:53:36.869Z,83.63
2022-11-22T05:56:16.153Z,87.07
2022-11-22T05:58:43.404Z,81.07
2022-11-22T06:01:13.493Z,87.45
2022-11-22T06:03:40.712Z,85.22
2022-11-22T06:06:08.440Z,82.25
2022-11-22T06:08:37.530Z,78.50
2022-11-22T06:11:16.019Z,82.32
2022-11-22T06:13:44.390Z,89.18
2022-11-22T06:16:11.581Z,76.20
2022-11-22T06:18:38.581Z,82.20
2022-11-22T06:21:10.323Z,85.35
2022-11-22T06:26:06.858Z,80.68
2022-11-22T06:28:35.501Z,83.28
2022-11-22T06:31:06.746Z,92.38
2022-11-22T06:33:33.981Z,90.88
2022-11-22T06:36:06.454Z,85.75
2022-11-22T06:38:33.708Z,89.53
2022-11-22T06:41:12.044Z,87.10
2022-11-22T06:43:45.333Z,102.35
2022-11-22T06:46:16.287Z,97.57
2022-11-22T06:48:43.354Z,88.55
2022-11-22T06:51:13.320Z,93.35
2022-11-22T06:53:47.205Z,91.40
2022-11-22T06:56:20.253Z,88.20
2022-11-22T06:58:48.773Z,100.18
2022-11-22T07:01:19.426Z,104.05
2022-11-22T07:03:46.870Z,96.65
2022-11-22T07:06:15.206Z,98.43
2022-11-22T07:08:43.449Z,97.75
2022-11-22T07:11:13.041Z,99.03
2022-11-22T07:13:39.873Z,94.90
2022-11-22T07:16:09.167Z,96.18
2022-11-22T07:18:36.122Z,91.10
2022-11-22T07:21:10.955Z,90.07
2022-11-22T07:23:40.570Z,79.95
2022-11-22T07:26:07.431Z,87.65
2022-11-22T07:28:34.266Z,94.10
2022-11-22T07:31:02.633Z,89.95
2022-11-22T07:33:29.802Z,83.30
2022-11-22T07:36:02.973Z,81.68
2022-11-22T07:38:29.735Z,94.60
2022-11-22T07:40:56.474Z,84.28
2022-11-22T07:43:23.317Z,84.47
2022-11-22T07:45:50.065Z,91.22
2022-11-22T07:48:16.832Z,87.15
2022-11-22T07:50:43.692Z,81.07
2022-11-22T07:53:10.557Z,82.35
2022-11-22T07:55:37.429Z,78.90
2022-11-22T07:58:07.323Z,88.90
2022-11-22T08:00:34.153Z,82.10
2022-11-22T08:03:00.999Z,94.95
2022-11-22T08:05:27.959Z,97.00
2022-11-22T08:07:55.263Z,87.90
2022-11-22T08:10:22.873Z,93.35
2022-11-22T08:12:49.686Z,88.57
2022-11-22T08:15:17.341Z,90.10
2022-11-22T08:17:44.379Z,78.38
2022-11-22T08:20:11.510Z,84.45
2022-11-22T08:22:39.311Z,87.05
2022-11-22T08:25:12.367Z,79.78
2022-11-22T08:27:41.123Z,82.63
2022-11-22T08:30:09.327Z,82.40
2022-11-22T08:32:36.540Z,76.55
2022-11-22T08:35:03.709Z,81.22
2022-11-22T08:37:30.522Z,78.85
2022-11-22T08:39:57.497Z,85.40
2022-11-22T08:42:24.510Z,82.45
2022-11-22T08:44:51.281Z,81.00
2022-11-22T08:47:18.231Z,87.82
2022-11-22T08:49:45.045Z,85.00
2022-11-22T08:52:11.936Z,89.75
2022-11-22T08:54:38.797Z,85.28
2022-11-22T08:57:05.926Z,87.47
2022-11-22T08:59:33.653Z,83.45
2022-11-22T09:02:01.059Z,83.78
2022-11-22T09:04:27.961Z,78.53
2022-11-22T09:09:41.461Z,74.43
2022-11-22T09:12:08.290Z,76.50
2022-11-22T09:14:35.203Z,76.40
2022-11-22T09:17:02.003Z,67.97
2022-11-22T09:19:28.925Z,64.25
2022-11-22T09:21:55.797Z,63.30
2022-11-22T09:24:22.588Z,59.45
2022-11-22T09:26:49.356Z,56.42
2022-11-22T09:29:16.134Z,57.92
2022-11-22T09:31:42.977Z,56.65
2022-11-22T09:34:09.758Z,53.42
2022-11-22T09:36:36.559Z,51.90
2022-11-22T09:39:03.618Z,49.08
2022-11-22T09:41:33.128Z,47.45
2022-11-22T09:44:21.591Z,50.45
2022-11-22T09:47:33.242Z,51.35
2022-11-22T09:50:33.913Z,55.05
2022-11-22T09:53:19.868Z,53.80
2022-11-22T09:55:53.649Z,51.78
2022-11-22T09:58:38.798Z,48.88
2022-11-22T10:01:41.155Z,46.15
2022-11-22T10:04:19.710Z,47.08
2022-11-22T10:06:53.002Z,57.85
2022-11-22T10:09:26.056Z,48.97
2022-11-22T10:12:14.525Z,49.42
2022-11-22T10:14:41.281Z,47.83
2022-11-22T10:17:44.749Z,49.03
2022-11-22T10:20:32.698Z,52.58
2022-11-22T10:22:59.893Z,47.55
2022-11-22T10:25:40.161Z,59.08
2022-11-22T10:28:41.022Z,55.63
2022-11-22T10:31:45.522Z,52.60
2022-11-22T10:34:23.360Z,57.63
2022-11-22T10:37:09.058Z,58.20
2022-11-22T10:40:25.167Z,53.85
2022-11-22T10:42:57.712Z,48.22
2022-11-22T10:45:30.466Z,47.30
2022-11-22T10:48:21.852Z,48.80
2022-11-22T10:50:59.841Z,37.03
2022-11-22T10:53:31.265Z,38.90
2022-11-22T10:56:03.812Z,41.50
2022-11-22T10:58:33.691Z,40.55
2022-11-22T11:01:14.428Z,37.95
2022-11-22T11:03:44.459Z,37.80
2022-11-22T11:06:37.508Z,37.22
2022-11-22T11:10:09.778Z,29.83
2022-11-22T11:12:41.491Z,36.03
2022-11-22T11:15:52.807Z,33.42
2022-11-22T11:18:55.247Z,28.67
2022-11-22T11:21:22.153Z,33.90
2022-11-22T11:23:48.961Z,32.92
2022-11-22T11:26:30.507Z,33.53
2022-11-22T11:29:16.246Z,32.42
2022-11-22T11:31:48.349Z,37.58
2022-11-22T11:34:24.206Z,33.88
2022-11-22T11:36:53.894Z,33.35
2022-11-22T11:39:22.015Z,38.22
2022-11-22T11:41:48.797Z,33.63
2022-11-22T11:44:29.427Z,28.50
2022-11-22T11:46:56.368Z,36.75
2022-11-22T11:49:26.261Z,32.03
2022-11-22T11:51:59.468Z,33.45
2022-11-22T11:54:38.525Z,33.72
2022-11-22T11:57:10.872Z,30.25
2022-11-22T11:59:37.572Z,28.25
2022-11-22T12:02:18.056Z,31.65
2022-11-22T12:05:25.648Z,25.90
2022-11-22T12:07:52.600Z,28.75
2022-11-22T12:10:30.394Z,41.20
2022-11-22T12:13:31.583Z,25.90
2022-11-22T12:16:30.334Z,30.20
2022-11-22T12:19:24.416Z,28.25
2022-11-22T12:22:29.448Z,24.27
2022-11-22T12:25:34.283Z,28.33
2022-11-22T12:28:19.569Z,31.33
2022-11-22T12:30:52.830Z,29.38
2022-11-22T12:33:24.757Z,26.30
2022-11-22T12:35:55.407Z,30.52
2022-11-22T12:38:29.943Z,29.42
2022-11-22T12:41:02.304Z,33.13
2022-11-22T12:44:04.885Z,31.48
2022-11-22T12:46:42.123Z,27.35
2022-11-22T12:49:37.534Z,27.67
2022-11-22T12:52:28.171Z,32.17
2022-11-22T12:55:05.919Z,31.92
2022-11-22T12:58:06.142Z,32.03
2022-11-22T13:00:37.179Z,27.95
2022-11-22T13:03:22.483Z,19.10
2022-11-22T13:05:54.925Z,25.88
2022-11-22T13:08:33.946Z,21.40
2022-11-22T13:11:24.490Z,16.33
2022-11-22T13:13:57.510Z,15.43
2022-11-22T13:16:24.279Z,16.90
2022-11-22T13:19:14.176Z,14.13
2022-11-22T13:22:02.307Z,15.73
2022-11-22T13:24:37.941Z,11.90
2022-11-22T13:27:35.555Z,12.30
2022-11-22T13:30:04.306Z,14.43
2022-11-22T13:32:33.768Z,15.57
2022-11-22T13:35:02.589Z,14.35
2022-11-22T13:37:31.955Z,13.32
2022-11-22T13:40:29.809Z,11.57
2022-11-22T13:43:19.747Z,14.95
2022-11-22T13:46:05.497Z,10.15
2022-11-22T13:48:41.299Z,13.68
2022-11-22T13:51:12.041Z,12.73
2022-11-22T13:53:46.188Z,16.13
2022-11-22T13:56:15.649Z,12.02
2022-11-22T13:58:51.076Z,15.40
2022-11-22T14:01:35.305Z,16.23
2022-11-22T14:04:17.463Z,18.00
2022-11-22T14:07:03.541Z,12.77
2022-11-22T14:09:44.462Z,14.40
2022-11-22T14:12:11.186Z,13.23
2022-11-22T14:15:15.512Z,13.43
2022-11-22T14:17:48.011Z,15.48
2022-11-22T14:20:36.001Z,15.02
2022-11-22T14:23:16.841Z,12.18
2022-11-22T14:25:49.778Z,11.90
2022-11-22T14:28:39.556Z,12.10
2022-11-22T14:31:20.489Z,16.10
2022-11-22T14:34:18.265Z,12.88
2022-11-22T14:36:46.656Z,17.17
2022-11-22T14:39:53.419Z,15.18
2022-11-22T14:42:35.733Z,13.38
2022-11-22T14:45:23.124Z,11.10
2022-11-22T14:47:53.394Z,13.40
2022-11-22T14:50:31.217Z,13.40
2022-11-22T14:53:07.350Z,14.35
2022-11-22T14:55:35.048Z,14.35
2022-11-22T14:58:12.512Z,13.68
2022-11-22T15:01:12.960Z,17.27
2022-11-22T15:09:14.559Z,12.02
2022-11-22T15:09:21.957Z,11.15
2022-11-22T15:10:31.564Z,14.52
2022-11-22T15:13:04.414Z,11.60
2022-11-22T15:59:46.914Z,26.42
2022-11-22T16:02:20.466Z,26.08
2022-11-22T16:06:08.061Z,30.23
2022-11-22T16:07:45.140Z,28.20
2022-11-22T16:10:22.324Z,23.48
2022-11-22T16:12:49.921Z,22.02
2022-11-22T16:15:28.288Z,27.05
2022-11-22T16:18:10.344Z,29.35
2022-11-22T16:20:39.288Z,27.90
2022-11-22T16:23:14.960Z,24.67
2022-11-22T16:25:44.601Z,25.10
2022-11-22T16:28:20.392Z,24.95
2022-11-22T16:30:47.353Z,24.73
2022-11-22T16:33:14.111Z,22.83
2022-11-22T16:35:40.955Z,29.65
2022-11-22T16:38:07.697Z,25.42
2022-11-22T16:40:41.686Z,27.10
2022-11-22T16:43:20.352Z,26.52
2022-11-22T16:45:47.229Z,25.48
2022-11-22T16:48:33.404Z,26.50
2022-11-22T16:51:06.717Z,18.48
2022-11-22T16:53:46.788Z,22.95
2022-11-22T16:56:17.004Z,25.73
2022-11-22T16:58:44.129Z,23.67
2022-11-22T17:01:15.967Z,36.65
2022-11-22T17:03:45.039Z,27.70
2022-11-22T17:06:24.378Z,27.83
2022-11-22T17:08:53.114Z,28.35
2022-11-22T17:11:21.668Z,31.17
2022-11-22T17:13:48.928Z,31.35
2022-11-22T17:16:19.110Z,30.52
2022-11-22T17:18:46.770Z,32.42
2022-11-22T17:21:21.268Z,33.00
2022-11-22T17:23:49.516Z,34.35
2022-11-22T17:26:16.436Z,36.17
2022-11-22T17:28:43.164Z,40.55
2022-11-22T17:31:13.668Z,41.42
2022-11-22T17:33:40.669Z,40.17
2022-11-22T17:36:29.599Z,44.40
2022-11-22T17:38:57.172Z,34.78
2022-11-22T17:41:24.287Z,39.95
2022-11-22T17:43:51.941Z,43.40
2022-11-22T17:46:19.331Z,38.80
2022-11-22T17:49:00.413Z,39.17
2022-11-22T17:51:28.994Z,40.95
2022-11-22T17:53:58.330Z,38.90
2022-11-22T17:56:27.176Z,42.72
2022-11-22T17:58:53.996Z,37.05
2022-11-22T18:01:22.965Z,44.05
2022-11-22T18:03:50.290Z,34.17
2022-11-22T18:06:21.450Z,35.30
2022-11-22T18:08:48.693Z,32.72
2022-11-22T18:11:16.375Z,33.28
2022-11-22T18:13:43.332Z,28.95
2022-11-22T18:16:15.871Z,34.88
2022-11-22T18:18:58.945Z,31.48
2022-11-22T18:21:29.349Z,32.55
2022-11-22T18:23:58.361Z,30.48
2022-11-22T18:26:41.667Z,28.13
2022-11-22T18:31:57.194Z,29.67
2022-11-22T18:34:24.740Z,28.73
2022-11-22T18:37:07.497Z,29.63
2022-11-22T18:42:24.452Z,32.60
2022-11-22T18:44:54.318Z,26.42
2022-11-22T18:47:21.099Z,22.67
2022-11-22T18:49:48.164Z,31.20
2022-11-22T18:52:17.770Z,26.77
2022-11-22T18:54:44.985Z,29.25
2022-11-22T18:57:11.727Z,33.72
2022-11-22T18:59:38.771Z,26.88
2022-11-22T19:02:06.017Z,25.35
2022-11-22T19:04:33.131Z,26.73
2022-11-22T19:07:00.307Z,30.95
2022-11-22T19:09:27.066Z,26.48
2022-11-22T19:11:58.418Z,27.63
2022-11-22T19:14:29.076Z,25.77
2022-11-22T19:16:56.225Z,28.83
2022-11-22T19:19:24.277Z,30.65
2022-11-22T19:21:51.032Z,29.42
2022-11-22T19:24:17.775Z,30.38
2022-11-22T19:26:44.618Z,28.48
2022-11-22T19:29:11.373Z,33.50
2022-11-22T19:31:38.134Z,31.45
2022-11-22T19:34:04.995Z,29.52
2022-11-22T19:36:34.360Z,28.33
2022-11-22T19:39:03.784Z,27.52
2022-11-22T19:41:31.143Z,28.60
2022-11-22T19:43:57.976Z,24.75
2022-11-22T19:46:25.717Z,24.48
2022-11-22T19:48:54.245Z,27.85
2022-11-22T19:51:22.057Z,29.02
2022-11-22T19:53:49.074Z,27.70
2022-11-22T19:56:19.653Z,22.52
2022-11-22T19:58:51.905Z,24.15
2022-11-22T20:01:19.228Z,22.70
2022-11-22T20:03:46.410Z,23.40
2022-11-22T20:06:14.384Z,33.35
2022-11-22T20:08:41.643Z,38.67
2022-11-22T20:11:13.512Z,27.70
2022-11-22T20:16:25.348Z,26.00
2022-11-22T20:18:54.024Z,26.77
2022-11-22T20:21:22.414Z,28.80
2022-11-22T20:23:50.385Z,25.13
2022-11-22T20:26:18.378Z,34.53
2022-11-22T20:28:46.196Z,23.58
2022-11-22T20:31:15.787Z,24.42
2022-11-22T20:33:47.332Z,26.08
2022-11-22T20:36:20.338Z,31.48
2022-11-22T20:38:48.993Z,30.45
2022-11-22T20:41:17.349Z,30.80
2022-11-22T20:43:44.936Z,29.33
2022-11-22T20:46:16.597Z,35.38
2022-11-22T20:48:53.826Z,36.50
2022-11-22T20:51:23.334Z,27.50
2022-11-22T20:53:50.919Z,24.88
2022-11-22T20:56:17.978Z,28.30
2022-11-22T20:58:44.865Z,29.75
2022-11-22T21:01:17.009Z,28.75
2022-11-22T21:03:44.361Z,34.08
2022-11-22T21:06:12.525Z,31.20
2022-11-22T21:08:39.774Z,40.17
2022-11-22T21:11:10.611Z,37.28
2022-11-22T21:13:37.960Z,37.08
2022-11-22T21:16:21.774Z,35.20
2022-11-22T21:18:55.449Z,33.03
2022-11-22T21:21:23.460Z,33.33
2022-11-22T21:23:58.253Z,32.60
2022-11-22T21:26:25.663Z,29.33
2022-11-22T21:28:53.516Z,26.95
2022-11-22T21:31:21.600Z,31.02
2022-11-22T21:33:48.515Z,15.38
2022-11-22T21:36:15.306Z,14.43
2022-11-22T21:38:42.119Z,15.00
2022-11-22T21:44:00.554Z,16.55
2022-11-22T21:46:27.308Z,16.02
2022-11-22T21:48:55.948Z,16.77
2022-11-22T21:51:25.832Z,22.52
2022-11-22T21:53:57.595Z,19.35
2022-11-22T21:56:24.610Z,22.67
2022-11-22T21:58:51.373Z,19.60
2022-11-22T22:01:18.143Z,22.60
2022-11-22T22:03:45.127Z,25.77
2022-11-22T22:06:11.897Z,18.17
2022-11-22T22:08:40.654Z,20.77
2022-11-22T22:11:07.732Z,19.38
2022-11-22T22:13:34.661Z,22.60
2022-11-22T22:16:04.110Z,18.75
2022-11-22T22:18:36.350Z,20.60
2022-11-22T22:21:05.776Z,17.42
2022-11-22T22:23:34.410Z,17.38
2022-11-22T22:26:02.404Z,22.20
2022-11-22T22:28:30.796Z,16.17
2022-11-22T22:31:04.709Z,16.75
2022-11-22T22:33:31.798Z,16.35
2022-11-22T22:35:59.619Z,17.58
2022-11-22T22:38:26.775Z,15.65
2022-11-22T22:40:58.813Z,20.40
2022-11-22T22:43:30.464Z,17.70
2022-11-22T22:46:06.640Z,21.90
2022-11-22T22:48:34.491Z,21.27
2022-11-22T22:51:18.482Z,27.00
2022-11-22T22:53:46.182Z,25.00
2022-11-22T22:56:14.302Z,25.38
2022-11-22T22:58:41.175Z,21.25
2022-11-22T23:01:29.506Z,17.45
2022-11-22T23:03:58.554Z,19.33
2022-11-22T23:06:27.668Z,20.45
2022-11-22T23:08:55.394Z,20.05
2022-11-22T23:11:44.707Z,18.73
2022-11-22T23:14:13.379Z,20.63
2022-11-22T23:16:40.630Z,17.38
2022-11-22T23:19:07.961Z,17.52
2022-11-22T23:21:35.210Z,17.25
2022-11-22T23:24:02.783Z,18.30
2022-11-22T23:26:29.565Z,19.77
2022-11-22T23:28:56.392Z,18.27
2022-11-22T23:31:23.157Z,18.95
2022-11-22T23:33:49.966Z,17.77
2022-11-22T23:36:19.130Z,18.88
2022-11-22T23:38:46.654Z,13.65
2022-11-22T23:41:21.926Z,15.38
2022-11-22T23:43:55.880Z,25.10
2022-11-22T23:46:26.463Z,15.52
2022-11-22T23:48:55.887Z,15.95
2022-11-22T23:51:23.787Z,17.67
2022-11-22T23:54:02.122Z,14.82
2022-11-22T23:56:30.157Z,15.18
2022-11-22T23:58:59.464Z,11.48
